sensor_id;sensor_type;location;lat;lon;timestamp;P1;durP1;ratioP1;P2;durP2;ratioP2
57315;SDS011;43156;50.942;18.144;2022-07-01T00:02:11;16.20;;;7.50;;
57315;SDS011;43156;50.942;18.144;2022-07-01T00:05:15;14.20;;;7.40;;
57315;SDS011;43156;50.942;18.144;2022-07-01T00:08:28;18.10;;;8.00;;
57315;SDS011;43156;50.942;18.144;2022-07-01T00:11:23;16.60;;;8.20;;
57315;SDS011;43156;50.942;18.144;2022-07-01T00:14:12;15.70;;;8.30;;
57315;SDS011;43156;50.942;18.144;2022-07-01T00:17:09;18.60;;;8.10;;
57315;SDS011;43156;50.942;18.144;2022-07-01T00:20:06;17.50;;;8.50;;
57315;SDS011;43156;50.942;18.144;2022-07-01T00:22:57;19.70;;;8.70;;
57315;SDS011;43156;50.942;18.144;2022-07-01T00:25:58;19.70;;;8.50;;
57315;SDS011;43156;50.942;18.144;2022-07-01T00:29:14;15.90;;;9.00;;
57315;SDS011;43156;50.942;18.144;2022-07-01T00:32:54;16.50;;;8.70;;
57315;SDS011;43156;50.942;18.144;2022-07-01T00:35:55;15.30;;;8.00;;
57315;SDS011;43156;50.942;18.144;2022-07-01T00:39:31;13.80;;;7.80;;
57315;SDS011;43156;50.942;18.144;2022-07-01T00:42:50;17.20;;;7.90;;
57315;SDS011;43156;50.942;18.144;2022-07-01T00:46:21;14.50;;;8.00;;
57315;SDS011;43156;50.942;18.144;2022-07-01T00:49:23;16.30;;;8.60;;
57315;SDS011;43156;50.942;18.144;2022-07-01T00:52:28;21.00;;;9.30;;
57315;SDS011;43156;50.942;18.144;2022-07-01T00:55:27;23.10;;;9.80;;
57315;SDS011;43156;50.942;18.144;2022-07-01T00:58:33;14.00;;;7.60;;
57315;SDS011;43156;50.942;18.144;2022-07-01T01:01:32;13.80;;;7.80;;
57315;SDS011;43156;50.942;18.144;2022-07-01T01:04:39;13.90;;;8.10;;
57315;SDS011;43156;50.942;18.144;2022-07-01T01:07:44;13.10;;;8.70;;
57315;SDS011;43156;50.942;18.144;2022-07-01T01:10:56;21.60;;;9.20;;
57315;SDS011;43156;50.942;18.144;2022-07-01T01:13:59;19.80;;;8.30;;
57315;SDS011;43156;50.942;18.144;2022-07-01T01:17:20;18.50;;;9.00;;
57315;SDS011;43156;50.942;18.144;2022-07-01T01:21:07;21.10;;;10.70;;
57315;SDS011;43156;50.942;18.144;2022-07-01T01:24:41;25.20;;;10.20;;
57315;SDS011;43156;50.942;18.144;2022-07-01T01:28:08;23.90;;;10.40;;
57315;SDS011;43156;50.942;18.144;2022-07-01T01:31:32;20.60;;;11.00;;
57315;SDS011;43156;50.942;18.144;2022-07-01T01:34:56;23.10;;;11.60;;
57315;SDS011;43156;50.942;18.144;2022-07-01T01:38:24;21.00;;;10.80;;
57315;SDS011;43156;50.942;18.144;2022-07-01T01:41:41;18.40;;;11.60;;
57315;SDS011;43156;50.942;18.144;2022-07-01T01:44:56;20.10;;;11.40;;
57315;SDS011;43156;50.942;18.144;2022-07-01T01:47:59;23.30;;;10.60;;
57315;SDS011;43156;50.942;18.144;2022-07-01T01:51:05;23.40;;;11.20;;
57315;SDS011;43156;50.942;18.144;2022-07-01T01:54:10;27.40;;;10.00;;
57315;SDS011;43156;50.942;18.144;2022-07-01T01:57:15;23.90;;;11.20;;
57315;SDS011;43156;50.942;18.144;2022-07-01T02:00:15;22.50;;;10.50;;
57315;SDS011;43156;50.942;18.144;2022-07-01T02:03:28;21.80;;;11.00;;
57315;SDS011;43156;50.942;18.144;2022-07-01T02:06:47;19.20;;;9.60;;
57315;SDS011;43156;50.942;18.144;2022-07-01T02:10:03;18.80;;;11.50;;
57315;SDS011;43156;50.942;18.144;2022-07-01T02:13:20;21.70;;;12.00;;
57315;SDS011;43156;50.942;18.144;2022-07-01T02:16:20;19.50;;;10.90;;
57315;SDS011;43156;50.942;18.144;2022-07-01T02:19:29;19.60;;;11.60;;
57315;SDS011;43156;50.942;18.144;2022-07-01T02:22:24;20.40;;;11.00;;
57315;SDS011;43156;50.942;18.144;2022-07-01T02:25:47;22.90;;;10.70;;
57315;SDS011;43156;50.942;18.144;2022-07-01T02:28:41;21.00;;;10.30;;
57315;SDS011;43156;50.942;18.144;2022-07-01T02:31:54;20.40;;;11.30;;
57315;SDS011;43156;50.942;18.144;2022-07-01T02:34:59;15.00;;;9.70;;
57315;SDS011;43156;50.942;18.144;2022-07-01T02:38:02;20.20;;;9.60;;
57315;SDS011;43156;50.942;18.144;2022-07-01T02:41:04;18.80;;;10.00;;
57315;SDS011;43156;50.942;18.144;2022-07-01T02:43:56;18.20;;;9.20;;
57315;SDS011;43156;50.942;18.144;2022-07-01T02:46:56;19.20;;;9.00;;
57315;SDS011;43156;50.942;18.144;2022-07-01T02:49:38;21.60;;;10.40;;
57315;SDS011;43156;50.942;18.144;2022-07-01T02:52:47;13.40;;;9.20;;
57315;SDS011;43156;50.942;18.144;2022-07-01T02:55:41;20.50;;;9.20;;
57315;SDS011;43156;50.942;18.144;2022-07-01T02:58:32;20.90;;;9.90;;
57315;SDS011;43156;50.942;18.144;2022-07-01T03:01:27;20.40;;;10.60;;
57315;SDS011;43156;50.942;18.144;2022-07-01T03:04:14;28.10;;;10.60;;
57315;SDS011;43156;50.942;18.144;2022-07-01T03:07:03;20.20;;;11.10;;
57315;SDS011;43156;50.942;18.144;2022-07-01T03:10:12;17.30;;;10.80;;
57315;SDS011;43156;50.942;18.144;2022-07-01T03:13:01;19.10;;;10.50;;
57315;SDS011;43156;50.942;18.144;2022-07-01T03:16:05;25.40;;;11.80;;
57315;SDS011;43156;50.942;18.144;2022-07-01T03:19:02;23.40;;;11.40;;
57315;SDS011;43156;50.942;18.144;2022-07-01T03:22:28;26.60;;;11.70;;
57315;SDS011;43156;50.942;18.144;2022-07-01T03:25:36;20.20;;;10.40;;
57315;SDS011;43156;50.942;18.144;2022-07-01T03:28:30;22.30;;;10.60;;
57315;SDS011;43156;50.942;18.144;2022-07-01T03:31:55;23.10;;;11.60;;
57315;SDS011;43156;50.942;18.144;2022-07-01T03:34:50;26.80;;;10.50;;
57315;SDS011;43156;50.942;18.144;2022-07-01T03:37:44;25.00;;;11.10;;
57315;SDS011;43156;50.942;18.144;2022-07-01T03:40:47;24.30;;;11.50;;
57315;SDS011;43156;50.942;18.144;2022-07-01T03:43:47;26.30;;;12.20;;
57315;SDS011;43156;50.942;18.144;2022-07-01T03:46:40;27.50;;;11.60;;
57315;SDS011;43156;50.942;18.144;2022-07-01T03:49:38;29.80;;;12.30;;
57315;SDS011;43156;50.942;18.144;2022-07-01T03:52:37;28.20;;;13.40;;
57315;SDS011;43156;50.942;18.144;2022-07-01T03:55:56;29.90;;;13.00;;
57315;SDS011;43156;50.942;18.144;2022-07-01T03:59:04;30.50;;;13.50;;
57315;SDS011;43156;50.942;18.144;2022-07-01T04:02:27;33.10;;;14.00;;
57315;SDS011;43156;50.942;18.144;2022-07-01T04:05:37;32.10;;;13.40;;
57315;SDS011;43156;50.942;18.144;2022-07-01T04:08:29;29.90;;;13.60;;
57315;SDS011;43156;50.942;18.144;2022-07-01T04:11:36;29.10;;;14.60;;
57315;SDS011;43156;50.942;18.144;2022-07-01T04:14:56;32.50;;;15.80;;
57315;SDS011;43156;50.942;18.144;2022-07-01T04:18:31;23.10;;;14.80;;
57315;SDS011;43156;50.942;18.144;2022-07-01T04:21:40;24.60;;;14.90;;
57315;SDS011;43156;50.942;18.144;2022-07-01T04:24:38;26.00;;;15.60;;
57315;SDS011;43156;50.942;18.144;2022-07-01T04:27:43;31.70;;;16.30;;
57315;SDS011;43156;50.942;18.144;2022-07-01T04:30:45;23.30;;;14.90;;
57315;SDS011;43156;50.942;18.144;2022-07-01T04:33:33;24.60;;;15.30;;
57315;SDS011;43156;50.942;18.144;2022-07-01T04:37:07;27.60;;;16.70;;
57315;SDS011;43156;50.942;18.144;2022-07-01T04:40:21;22.70;;;15.70;;
57315;SDS011;43156;50.942;18.144;2022-07-01T04:43:46;25.40;;;16.90;;
57315;SDS011;43156;50.942;18.144;2022-07-01T04:46:53;23.00;;;17.60;;
57315;SDS011;43156;50.942;18.144;2022-07-01T04:49:40;23.70;;;17.10;;
57315;SDS011;43156;50.942;18.144;2022-07-01T04:52:40;23.10;;;16.40;;
57315;SDS011;43156;50.942;18.144;2022-07-01T04:55:46;26.30;;;17.00;;
57315;SDS011;43156;50.942;18.144;2022-07-01T04:58:32;25.20;;;18.40;;
57315;SDS011;43156;50.942;18.144;2022-07-01T05:01:41;25.20;;;17.50;;
57315;SDS011;43156;50.942;18.144;2022-07-01T05:04:40;20.00;;;17.40;;
57315;SDS011;43156;50.942;18.144;2022-07-01T05:07:41;21.60;;;18.10;;
57315;SDS011;43156;50.942;18.144;2022-07-01T05:10:53;21.20;;;16.90;;
57315;SDS011;43156;50.942;18.144;2022-07-01T05:13:53;21.60;;;16.80;;
57315;SDS011;43156;50.942;18.144;2022-07-01T05:16:54;25.40;;;18.00;;
57315;SDS011;43156;50.942;18.144;2022-07-01T05:20:12;21.70;;;17.20;;
57315;SDS011;43156;50.942;18.144;2022-07-01T05:23:33;22.20;;;16.40;;
57315;SDS011;43156;50.942;18.144;2022-07-01T05:26:29;21.80;;;17.40;;
57315;SDS011;43156;50.942;18.144;2022-07-01T05:29:22;23.80;;;18.00;;
57315;SDS011;43156;50.942;18.144;2022-07-01T05:32:32;22.50;;;17.40;;
57315;SDS011;43156;50.942;18.144;2022-07-01T05:35:25;19.80;;;17.70;;
57315;SDS011;43156;50.942;18.144;2022-07-01T05:38:23;21.10;;;17.30;;
57315;SDS011;43156;50.942;18.144;2022-07-01T05:41:38;24.20;;;17.40;;
57315;SDS011;43156;50.942;18.144;2022-07-01T05:44:59;19.00;;;16.90;;
57315;SDS011;43156;50.942;18.144;2022-07-01T05:48:22;23.90;;;17.80;;
57315;SDS011;43156;50.942;18.144;2022-07-01T05:54:49;22.40;;;17.40;;
57315;SDS011;43156;50.942;18.144;2022-07-01T05:57:58;21.40;;;17.80;;
57315;SDS011;43156;50.942;18.144;2022-07-01T06:00:57;21.10;;;17.00;;
57315;SDS011;43156;50.942;18.144;2022-07-01T06:04:04;18.20;;;16.20;;
57315;SDS011;43156;50.942;18.144;2022-07-01T06:07:17;19.50;;;17.20;;
57315;SDS011;43156;50.942;18.144;2022-07-01T06:10:14;21.50;;;17.20;;
57315;SDS011;43156;50.942;18.144;2022-07-01T06:13:26;18.70;;;15.50;;
57315;SDS011;43156;50.942;18.144;2022-07-01T06:16:40;17.70;;;15.80;;
57315;SDS011;43156;50.942;18.144;2022-07-01T06:19:43;20.10;;;16.50;;
57315;SDS011;43156;50.942;18.144;2022-07-01T06:23:08;18.90;;;14.70;;
57315;SDS011;43156;50.942;18.144;2022-07-01T06:25:54;18.10;;;16.20;;
57315;SDS011;43156;50.942;18.144;2022-07-01T06:28:50;20.70;;;16.90;;
57315;SDS011;43156;50.942;18.144;2022-07-01T06:31:54;19.10;;;16.10;;
57315;SDS011;43156;50.942;18.144;2022-07-01T06:34:52;17.70;;;15.80;;
57315;SDS011;43156;50.942;18.144;2022-07-01T06:37:46;17.80;;;15.80;;
57315;SDS011;43156;50.942;18.144;2022-07-01T06:41:05;20.80;;;16.20;;
57315;SDS011;43156;50.942;18.144;2022-07-01T06:44:16;19.50;;;15.20;;
57315;SDS011;43156;50.942;18.144;2022-07-01T06:47:31;16.70;;;15.00;;
57315;SDS011;43156;50.942;18.144;2022-07-01T06:50:41;18.10;;;15.30;;
57315;SDS011;43156;50.942;18.144;2022-07-01T06:53:40;18.10;;;16.10;;
57315;SDS011;43156;50.942;18.144;2022-07-01T06:57:17;16.80;;;15.00;;
57315;SDS011;43156;50.942;18.144;2022-07-01T07:00:37;18.20;;;14.90;;
57315;SDS011;43156;50.942;18.144;2022-07-01T07:03:23;16.70;;;15.00;;
57315;SDS011;43156;50.942;18.144;2022-07-01T07:06:28;20.10;;;15.50;;
57315;SDS011;43156;50.942;18.144;2022-07-01T07:09:39;17.30;;;15.30;;
57315;SDS011;43156;50.942;18.144;2022-07-01T07:12:43;16.80;;;14.70;;
57315;SDS011;43156;50.942;18.144;2022-07-01T07:16:20;17.60;;;14.90;;
57315;SDS011;43156;50.942;18.144;2022-07-01T07:19:12;18.70;;;15.00;;
57315;SDS011;43156;50.942;18.144;2022-07-01T07:22:13;17.10;;;14.90;;
57315;SDS011;43156;50.942;18.144;2022-07-01T07:25:11;17.20;;;14.70;;
57315;SDS011;43156;50.942;18.144;2022-07-01T07:28:15;17.40;;;15.20;;
57315;SDS011;43156;50.942;18.144;2022-07-01T07:31:14;15.30;;;13.60;;
57315;SDS011;43156;50.942;18.144;2022-07-01T07:34:11;13.60;;;12.30;;
57315;SDS011;43156;50.942;18.144;2022-07-01T07:37:17;16.10;;;13.60;;
57315;SDS011;43156;50.942;18.144;2022-07-01T07:40:46;13.80;;;12.40;;
57315;SDS011;43156;50.942;18.144;2022-07-01T07:43:37;17.10;;;13.90;;
57315;SDS011;43156;50.942;18.144;2022-07-01T07:47:12;14.70;;;12.90;;
57315;SDS011;43156;50.942;18.144;2022-07-01T07:50:42;13.10;;;11.90;;
57315;SDS011;43156;50.942;18.144;2022-07-01T07:53:31;16.70;;;12.50;;
57315;SDS011;43156;50.942;18.144;2022-07-01T07:56:33;14.10;;;12.40;;
57315;SDS011;43156;50.942;18.144;2022-07-01T07:59:38;15.40;;;13.10;;
57315;SDS011;43156;50.942;18.144;2022-07-01T08:03:07;13.90;;;12.60;;
57315;SDS011;43156;50.942;18.144;2022-07-01T08:06:08;14.80;;;13.10;;
57315;SDS011;43156;50.942;18.144;2022-07-01T08:09:07;16.60;;;13.30;;
57315;SDS011;43156;50.942;18.144;2022-07-01T08:11:58;14.70;;;12.20;;
57315;SDS011;43156;50.942;18.144;2022-07-01T08:14:38;15.50;;;12.10;;
57315;SDS011;43156;50.942;18.144;2022-07-01T08:17:30;15.30;;;13.70;;
57315;SDS011;43156;50.942;18.144;2022-07-01T08:20:24;15.10;;;13.50;;
57315;SDS011;43156;50.942;18.144;2022-07-01T08:23:24;14.50;;;13.10;;
57315;SDS011;43156;50.942;18.144;2022-07-01T08:26:45;14.80;;;12.60;;
57315;SDS011;43156;50.942;18.144;2022-07-01T08:29:37;14.30;;;12.80;;
57315;SDS011;43156;50.942;18.144;2022-07-01T08:32:35;16.40;;;14.20;;
57315;SDS011;43156;50.942;18.144;2022-07-01T08:35:55;15.10;;;13.60;;
57315;SDS011;43156;50.942;18.144;2022-07-01T08:38:55;16.10;;;14.10;;
57315;SDS011;43156;50.942;18.144;2022-07-01T08:42:11;15.50;;;13.50;;
57315;SDS011;43156;50.942;18.144;2022-07-01T08:45:33;14.50;;;12.90;;
57315;SDS011;43156;50.942;18.144;2022-07-01T08:48:25;15.40;;;13.60;;
57315;SDS011;43156;50.942;18.144;2022-07-01T08:51:44;16.50;;;13.90;;
57315;SDS011;43156;50.942;18.144;2022-07-01T08:54:39;15.40;;;13.90;;
57315;SDS011;43156;50.942;18.144;2022-07-01T08:57:54;16.40;;;14.70;;
57315;SDS011;43156;50.942;18.144;2022-07-01T09:01:17;17.70;;;14.00;;
57315;SDS011;43156;50.942;18.144;2022-07-01T09:04:22;17.80;;;13.80;;
57315;SDS011;43156;50.942;18.144;2022-07-01T09:07:47;15.90;;;13.70;;
57315;SDS011;43156;50.942;18.144;2022-07-01T09:10:43;17.00;;;14.50;;
57315;SDS011;43156;50.942;18.144;2022-07-01T09:13:37;19.90;;;14.00;;
57315;SDS011;43156;50.942;18.144;2022-07-01T09:16:42;14.40;;;12.90;;
57315;SDS011;43156;50.942;18.144;2022-07-01T09:19:51;14.00;;;12.50;;
57315;SDS011;43156;50.942;18.144;2022-07-01T09:23:18;14.90;;;13.00;;
57315;SDS011;43156;50.942;18.144;2022-07-01T09:26:37;14.50;;;13.00;;
57315;SDS011;43156;50.942;18.144;2022-07-01T09:30:10;14.40;;;12.00;;
57315;SDS011;43156;50.942;18.144;2022-07-01T09:33:29;13.90;;;12.40;;
57315;SDS011;43156;50.942;18.144;2022-07-01T09:36:46;14.80;;;12.90;;
57315;SDS011;43156;50.942;18.144;2022-07-01T09:42:58;12.90;;;11.60;;
57315;SDS011;43156;50.942;18.144;2022-07-01T09:46:24;15.00;;;11.90;;
57315;SDS011;43156;50.942;18.144;2022-07-01T09:49:15;15.90;;;12.40;;
57315;SDS011;43156;50.942;18.144;2022-07-01T09:52:11;11.70;;;10.50;;
57315;SDS011;43156;50.942;18.144;2022-07-01T09:55:08;11.40;;;10.30;;
57315;SDS011;43156;50.942;18.144;2022-07-01T09:58:05;16.50;;;11.10;;
57315;SDS011;43156;50.942;18.144;2022-07-01T10:00:55;12.00;;;10.10;;
57315;SDS011;43156;50.942;18.144;2022-07-01T10:03:51;12.50;;;11.20;;
57315;SDS011;43156;50.942;18.144;2022-07-01T10:13:09;16.40;;;11.20;;
57315;SDS011;43156;50.942;18.144;2022-07-01T10:16:06;14.10;;;10.40;;
57315;SDS011;43156;50.942;18.144;2022-07-01T10:22:24;11.90;;;8.80;;
57315;SDS011;43156;50.942;18.144;2022-07-01T10:29:04;10.80;;;9.00;;
57315;SDS011;43156;50.942;18.144;2022-07-01T10:35:07;9.20;;;8.30;;
57315;SDS011;43156;50.942;18.144;2022-07-01T10:51:12;8.10;;;6.50;;
57315;SDS011;43156;50.942;18.144;2022-07-01T10:57:52;9.00;;;5.70;;
57315;SDS011;43156;50.942;18.144;2022-07-01T11:01:07;12.70;;;5.20;;
57315;SDS011;43156;50.942;18.144;2022-07-01T11:04:12;13.00;;;5.90;;
57315;SDS011;43156;50.942;18.144;2022-07-01T11:07:20;8.40;;;5.50;;
57315;SDS011;43156;50.942;18.144;2022-07-01T11:10:24;10.60;;;5.20;;
57315;SDS011;43156;50.942;18.144;2022-07-01T11:13:20;6.80;;;4.70;;
57315;SDS011;43156;50.942;18.144;2022-07-01T11:16:31;8.60;;;5.40;;
57315;SDS011;43156;50.942;18.144;2022-07-01T11:19:27;9.80;;;5.60;;
57315;SDS011;43156;50.942;18.144;2022-07-01T11:22:22;10.40;;;5.60;;
57315;SDS011;43156;50.942;18.144;2022-07-01T11:25:11;9.90;;;5.50;;
57315;SDS011;43156;50.942;18.144;2022-07-01T11:28:11;12.20;;;6.10;;
57315;SDS011;43156;50.942;18.144;2022-07-01T11:31:25;9.20;;;5.80;;
57315;SDS011;43156;50.942;18.144;2022-07-01T11:34:21;9.30;;;5.40;;
57315;SDS011;43156;50.942;18.144;2022-07-01T11:37:15;12.20;;;6.40;;
57315;SDS011;43156;50.942;18.144;2022-07-01T11:40:31;8.60;;;5.90;;
57315;SDS011;43156;50.942;18.144;2022-07-01T11:43:27;8.50;;;6.00;;
57315;SDS011;43156;50.942;18.144;2022-07-01T11:46:36;7.70;;;5.60;;
57315;SDS011;43156;50.942;18.144;2022-07-01T11:49:45;6.90;;;5.40;;
57315;SDS011;43156;50.942;18.144;2022-07-01T11:52:42;8.10;;;5.40;;
57315;SDS011;43156;50.942;18.144;2022-07-01T11:55:44;6.50;;;5.00;;
57315;SDS011;43156;50.942;18.144;2022-07-01T12:02:01;8.00;;;3.40;;
57315;SDS011;43156;50.942;18.144;2022-07-01T12:04:52;6.00;;;3.00;;
57315;SDS011;43156;50.942;18.144;2022-07-01T12:07:58;5.40;;;2.80;;
57315;SDS011;43156;50.942;18.144;2022-07-01T12:13:56;6.20;;;3.40;;
57315;SDS011;43156;50.942;18.144;2022-07-01T12:16:57;14.00;;;3.50;;
57315;SDS011;43156;50.942;18.144;2022-07-01T12:20:01;6.30;;;3.80;;
57315;SDS011;43156;50.942;18.144;2022-07-01T12:22:49;5.50;;;3.40;;
57315;SDS011;43156;50.942;18.144;2022-07-01T12:26:00;4.60;;;3.30;;
57315;SDS011;43156;50.942;18.144;2022-07-01T12:29:50;6.00;;;4.80;;
57315;SDS011;43156;50.942;18.144;2022-07-01T12:32:38;5.50;;;5.00;;
57315;SDS011;43156;50.942;18.144;2022-07-01T12:36:08;9.00;;;5.30;;
57315;SDS011;43156;50.942;18.144;2022-07-01T12:39:11;5.50;;;4.90;;
57315;SDS011;43156;50.942;18.144;2022-07-01T12:42:34;9.80;;;5.60;;
57315;SDS011;43156;50.942;18.144;2022-07-01T12:45:33;9.10;;;5.60;;
57315;SDS011;43156;50.942;18.144;2022-07-01T12:48:27;6.60;;;5.70;;
57315;SDS011;43156;50.942;18.144;2022-07-01T12:51:20;7.20;;;5.70;;
57315;SDS011;43156;50.942;18.144;2022-07-01T12:54:28;8.80;;;6.40;;
57315;SDS011;43156;50.942;18.144;2022-07-01T12:57:31;6.90;;;5.30;;
57315;SDS011;43156;50.942;18.144;2022-07-01T13:00:23;7.30;;;5.40;;
57315;SDS011;43156;50.942;18.144;2022-07-01T13:03:17;6.40;;;5.40;;
57315;SDS011;43156;50.942;18.144;2022-07-01T13:06:08;5.60;;;4.90;;
57315;SDS011;43156;50.942;18.144;2022-07-01T13:09:05;7.80;;;5.90;;
57315;SDS011;43156;50.942;18.144;2022-07-01T13:12:02;9.20;;;6.30;;
57315;SDS011;43156;50.942;18.144;2022-07-01T13:14:37;8.10;;;5.70;;
57315;SDS011;43156;50.942;18.144;2022-07-01T13:17:35;9.40;;;5.70;;
57315;SDS011;43156;50.942;18.144;2022-07-01T13:20:29;8.20;;;5.90;;
57315;SDS011;43156;50.942;18.144;2022-07-01T13:23:27;8.30;;;5.40;;
57315;SDS011;43156;50.942;18.144;2022-07-01T13:26:15;7.60;;;5.10;;
57315;SDS011;43156;50.942;18.144;2022-07-01T13:29:21;10.10;;;5.50;;
57315;SDS011;43156;50.942;18.144;2022-07-01T13:32:19;7.70;;;5.40;;
57315;SDS011;43156;50.942;18.144;2022-07-01T13:38:19;7.20;;;5.30;;
57315;SDS011;43156;50.942;18.144;2022-07-01T13:41:21;11.50;;;5.40;;
57315;SDS011;43156;50.942;18.144;2022-07-01T13:44:15;7.30;;;5.30;;
57315;SDS011;43156;50.942;18.144;2022-07-01T13:47:05;6.10;;;5.30;;
57315;SDS011;43156;50.942;18.144;2022-07-01T13:49:58;8.80;;;4.60;;
57315;SDS011;43156;50.942;18.144;2022-07-01T13:52:51;9.70;;;5.20;;
57315;SDS011;43156;50.942;18.144;2022-07-01T13:56:15;6.60;;;5.10;;
57315;SDS011;43156;50.942;18.144;2022-07-01T13:59:20;8.40;;;5.10;;
57315;SDS011;43156;50.942;18.144;2022-07-01T14:02:08;8.70;;;5.40;;
57315;SDS011;43156;50.942;18.144;2022-07-01T14:05:18;6.20;;;5.20;;
57315;SDS011;43156;50.942;18.144;2022-07-01T14:08:28;6.60;;;5.00;;
57315;SDS011;43156;50.942;18.144;2022-07-01T14:11:23;6.60;;;5.40;;
57315;SDS011;43156;50.942;18.144;2022-07-01T14:14:20;6.50;;;5.20;;
57315;SDS011;43156;50.942;18.144;2022-07-01T14:17:27;6.10;;;5.40;;
57315;SDS011;43156;50.942;18.144;2022-07-01T14:20:24;6.60;;;5.90;;
57315;SDS011;43156;50.942;18.144;2022-07-01T14:23:21;6.40;;;5.90;;
57315;SDS011;43156;50.942;18.144;2022-07-01T14:26:16;6.60;;;5.70;;
57315;SDS011;43156;50.942;18.144;2022-07-01T14:29:19;6.40;;;5.60;;
57315;SDS011;43156;50.942;18.144;2022-07-01T14:32:25;9.50;;;5.20;;
57315;SDS011;43156;50.942;18.144;2022-07-01T14:35:25;7.90;;;5.80;;
57315;SDS011;43156;50.942;18.144;2022-07-01T14:38:19;6.60;;;5.90;;
57315;SDS011;43156;50.942;18.144;2022-07-01T14:41:15;6.90;;;6.10;;
57315;SDS011;43156;50.942;18.144;2022-07-01T14:44:11;6.90;;;6.30;;
57315;SDS011;43156;50.942;18.144;2022-07-01T14:50:48;7.00;;;6.30;;
57315;SDS011;43156;50.942;18.144;2022-07-01T14:54:00;7.00;;;6.10;;
57315;SDS011;43156;50.942;18.144;2022-07-01T14:57:00;6.80;;;6.10;;
57315;SDS011;43156;50.942;18.144;2022-07-01T14:59:45;7.50;;;6.80;;
57315;SDS011;43156;50.942;18.144;2022-07-01T15:02:48;7.40;;;6.60;;
57315;SDS011;43156;50.942;18.144;2022-07-01T15:06:00;7.40;;;6.60;;
57315;SDS011;43156;50.942;18.144;2022-07-01T15:08:52;7.60;;;6.80;;
57315;SDS011;43156;50.942;18.144;2022-07-01T15:11:36;7.40;;;6.80;;
57315;SDS011;43156;50.942;18.144;2022-07-01T15:14:29;8.40;;;7.20;;
57315;SDS011;43156;50.942;18.144;2022-07-01T15:17:26;7.70;;;6.90;;
57315;SDS011;43156;50.942;18.144;2022-07-01T15:20:15;7.70;;;6.90;;
57315;SDS011;43156;50.942;18.144;2022-07-01T15:23:13;8.40;;;6.40;;
57315;SDS011;43156;50.942;18.144;2022-07-01T15:26:02;6.90;;;5.90;;
57315;SDS011;43156;50.942;18.144;2022-07-01T15:32:04;6.90;;;6.20;;
57315;SDS011;43156;50.942;18.144;2022-07-01T15:34:59;7.60;;;6.80;;
57315;SDS011;43156;50.942;18.144;2022-07-01T15:37:53;7.60;;;6.70;;
57315;SDS011;43156;50.942;18.144;2022-07-01T15:40:46;7.50;;;6.80;;
57315;SDS011;43156;50.942;18.144;2022-07-01T15:43:31;8.60;;;7.30;;
57315;SDS011;43156;50.942;18.144;2022-07-01T15:46:24;8.80;;;6.90;;
57315;SDS011;43156;50.942;18.144;2022-07-01T15:49:24;8.50;;;7.70;;
57315;SDS011;43156;50.942;18.144;2022-07-01T15:52:18;10.00;;;8.90;;
57315;SDS011;43156;50.942;18.144;2022-07-01T15:55:03;10.60;;;9.30;;
57315;SDS011;43156;50.942;18.144;2022-07-01T15:57:53;12.10;;;9.90;;
57315;SDS011;43156;50.942;18.144;2022-07-01T16:00:46;11.70;;;10.50;;
57315;SDS011;43156;50.942;18.144;2022-07-01T16:03:32;11.30;;;10.20;;
57315;SDS011;43156;50.942;18.144;2022-07-01T16:06:17;13.00;;;11.60;;
57315;SDS011;43156;50.942;18.144;2022-07-01T16:09:10;11.60;;;10.60;;
57315;SDS011;43156;50.942;18.144;2022-07-01T16:12:20;12.20;;;10.90;;
57315;SDS011;43156;50.942;18.144;2022-07-01T16:18:11;12.20;;;10.90;;
57315;SDS011;43156;50.942;18.144;2022-07-01T16:21:27;11.70;;;10.60;;
57315;SDS011;43156;50.942;18.144;2022-07-01T16:24:34;12.40;;;11.00;;
57315;SDS011;43156;50.942;18.144;2022-07-01T16:27:25;11.30;;;10.20;;
57315;SDS011;43156;50.942;18.144;2022-07-01T16:30:20;11.80;;;10.50;;
57315;SDS011;43156;50.942;18.144;2022-07-01T16:33:24;11.80;;;10.60;;
57315;SDS011;43156;50.942;18.144;2022-07-01T16:36:30;12.40;;;11.20;;
57315;SDS011;43156;50.942;18.144;2022-07-01T16:39:22;11.70;;;10.30;;
57315;SDS011;43156;50.942;18.144;2022-07-01T16:42:12;11.10;;;10.10;;
57315;SDS011;43156;50.942;18.144;2022-07-01T16:45:18;13.20;;;10.80;;
57315;SDS011;43156;50.942;18.144;2022-07-01T16:48:29;11.20;;;9.70;;
57315;SDS011;43156;50.942;18.144;2022-07-01T16:51:19;9.90;;;9.00;;
57315;SDS011;43156;50.942;18.144;2022-07-01T16:54:33;10.80;;;9.70;;
57315;SDS011;43156;50.942;18.144;2022-07-01T16:58:19;11.30;;;10.30;;
57315;SDS011;43156;50.942;18.144;2022-07-01T17:01:16;10.60;;;9.50;;
57315;SDS011;43156;50.942;18.144;2022-07-01T17:04:15;10.90;;;9.80;;
57315;SDS011;43156;50.942;18.144;2022-07-01T17:07:25;10.60;;;9.50;;
57315;SDS011;43156;50.942;18.144;2022-07-01T17:10:29;10.50;;;9.60;;
57315;SDS011;43156;50.942;18.144;2022-07-01T17:13:47;10.50;;;9.50;;
57315;SDS011;43156;50.942;18.144;2022-07-01T17:16:59;10.00;;;9.00;;
57315;SDS011;43156;50.942;18.144;2022-07-01T17:20:06;9.80;;;8.70;;
57315;SDS011;43156;50.942;18.144;2022-07-01T17:26:08;14.60;;;10.20;;
57315;SDS011;43156;50.942;18.144;2022-07-01T17:29:13;10.70;;;9.40;;
57315;SDS011;43156;50.942;18.144;2022-07-01T17:32:12;13.20;;;10.10;;
57315;SDS011;43156;50.942;18.144;2022-07-01T17:35:02;12.20;;;10.80;;
57315;SDS011;43156;50.942;18.144;2022-07-01T17:37:59;10.80;;;9.70;;
57315;SDS011;43156;50.942;18.144;2022-07-01T17:40:54;10.60;;;9.40;;
57315;SDS011;43156;50.942;18.144;2022-07-01T17:43:43;12.90;;;9.80;;
57315;SDS011;43156;50.942;18.144;2022-07-01T17:46:54;10.90;;;9.80;;
57315;SDS011;43156;50.942;18.144;2022-07-01T17:49:40;11.10;;;10.00;;
57315;SDS011;43156;50.942;18.144;2022-07-01T17:52:36;13.00;;;11.50;;
57315;SDS011;43156;50.942;18.144;2022-07-01T17:55:47;13.60;;;11.30;;
57315;SDS011;43156;50.942;18.144;2022-07-01T17:59:01;12.70;;;10.60;;
57315;SDS011;43156;50.942;18.144;2022-07-01T18:02:02;12.10;;;10.90;;
57315;SDS011;43156;50.942;18.144;2022-07-01T18:04:57;12.60;;;11.00;;
57315;SDS011;43156;50.942;18.144;2022-07-01T18:07:57;11.90;;;10.80;;
57315;SDS011;43156;50.942;18.144;2022-07-01T18:11:11;13.30;;;11.50;;
57315;SDS011;43156;50.942;18.144;2022-07-01T18:14:32;12.70;;;11.20;;
57315;SDS011;43156;50.942;18.144;2022-07-01T18:21:39;13.40;;;12.00;;
57315;SDS011;43156;50.942;18.144;2022-07-01T18:24:44;11.50;;;10.40;;
57315;SDS011;43156;50.942;18.144;2022-07-01T18:28:13;12.80;;;10.90;;
57315;SDS011;43156;50.942;18.144;2022-07-01T18:31:24;12.20;;;10.40;;
57315;SDS011;43156;50.942;18.144;2022-07-01T18:34:40;11.50;;;9.90;;
57315;SDS011;43156;50.942;18.144;2022-07-01T18:37:44;11.60;;;10.30;;
57315;SDS011;43156;50.942;18.144;2022-07-01T18:40:39;11.20;;;10.10;;
57315;SDS011;43156;50.942;18.144;2022-07-01T18:43:35;9.40;;;8.50;;
57315;SDS011;43156;50.942;18.144;2022-07-01T18:46:39;9.40;;;8.30;;
57315;SDS011;43156;50.942;18.144;2022-07-01T18:49:35;9.40;;;8.40;;
57315;SDS011;43156;50.942;18.144;2022-07-01T18:52:43;11.40;;;8.90;;
57315;SDS011;43156;50.942;18.144;2022-07-01T18:55:56;11.10;;;8.20;;
57315;SDS011;43156;50.942;18.144;2022-07-01T18:58:44;8.70;;;7.50;;